Time;durP1;ratioP1;P1;durP2;ratioP2;P2;SDS_P1;SDS_P2;PMS_P1;PMS_P2;Temp;Humidity;BMP_temperature;BMP_pressure;BME280_temperature;BME280_humidity;BME280_pressure;Samples;Min_cycle;Max_cycle;Signal;HPM_P1;HPM_P2
2022/03/14 00:00:13;;;;;;;5.35;4.50;;;;;;;;;;5067553;28;20599;-72
2022/03/14 00:02:41;;;;;;;6.40;5.80;;;;;;;;;;5069650;28;20355;-72
2022/03/14 00:05:10;;;;;;;5.53;4.85;;;;;;;;;;5060947;28;20285;-74
2022/03/14 00:07:38;;;;;;;4.90;4.40;;;;;;;;;;5061339;28;20277;-71
2022/03/14 00:10:06;;;;;;;4.95;4.40;;;;;;;;;;5067103;28;20202;-81
2022/03/14 00:12:33;;;;;;;5.18;3.88;;;;;;;;;;5067718;28;20205;-71
2022/03/14 00:15:03;;;;;;;6.70;5.45;;;;;;;;;;5066635;28;21088;-72
2022/03/14 00:17:30;;;;;;;4.35;3.95;;;;;;;;;;5065407;28;20221;-71
2022/03/14 00:19:58;;;;;;;5.30;4.78;;;;;;;;;;5063711;28;20649;-71
2022/03/14 00:22:27;;;;;;;6.28;4.97;;;;;;;;;;5064436;28;20292;-71
2022/03/14 00:24:54;;;;;;;5.15;4.50;;;;;;;;;;5064404;28;20222;-72
2022/03/14 00:27:21;;;;;;;6.15;5.55;;;;;;;;;;5067618;28;20194;-71
2022/03/14 00:29:48;;;;;;;8.27;6.75;;;;;;;;;;5062151;28;20576;-72
2022/03/14 00:32:15;;;;;;;4.50;4.10;;;;;;;;;;5065855;28;20703;-71
2022/03/14 00:34:42;;;;;;;5.15;4.63;;;;;;;;;;5065544;28;20198;-71
2022/03/14 00:37:10;;;;;;;5.70;5.20;;;;;;;;;;5067193;28;21401;-72
2022/03/14 00:39:38;;;;;;;4.75;4.28;;;;;;;;;;5065859;28;20324;-71
2022/03/14 00:42:05;;;;;;;7.00;6.30;;;;;;;;;;5066959;28;20241;-72
2022/03/14 00:44:32;;;;;;;7.30;5.00;;;;;;;;;;5059413;28;20233;-71
2022/03/14 00:46:59;;;;;;;5.40;4.10;;;;;;;;;;5067732;28;20245;-71
2022/03/14 00:49:27;;;;;;;10.90;8.50;;;;;;;;;;5070151;28;20202;-72
2022/03/14 00:51:54;;;;;;;5.47;4.90;;;;;;;;;;5070197;28;20194;-71
2022/03/14 00:54:21;;;;;;;6.60;5.63;;;;;;;;;;5063652;28;20201;-73
2022/03/14 00:56:49;;;;;;;11.93;7.82;;;;;;;;;;5071677;28;20198;-71
2022/03/14 00:59:16;;;;;;;6.32;4.45;;;;;;;;;;5063055;28;20241;-72
2022/03/14 01:01:43;;;;;;;8.85;7.13;;;;;;;;;;5066242;28;20251;-72
2022/03/14 01:04:10;;;;;;;5.43;4.90;;;;;;;;;;5066256;28;20615;-71
2022/03/14 01:06:37;;;;;;;9.77;6.10;;;;;;;;;;5063516;28;21616;-72
2022/03/14 01:09:05;;;;;;;5.70;4.75;;;;;;;;;;5060858;28;20221;-71
2022/03/14 01:11:32;;;;;;;5.18;4.60;;;;;;;;;;5067895;28;20187;-71
2022/03/14 01:14:01;;;;;;;8.75;6.13;;;;;;;;;;5063858;28;20225;-73
2022/03/14 01:16:28;;;;;;;6.30;5.45;;;;;;;;;;5066311;28;20607;-71
2022/03/14 01:18:55;;;;;;;5.35;4.38;;;;;;;;;;5067247;28;20210;-71
2022/03/14 01:21:23;;;;;;;6.75;5.53;;;;;;;;;;5061930;28;20194;-73
2022/03/14 01:23:50;;;;;;;6.35;5.43;;;;;;;;;;5066477;28;20252;-72
2022/03/14 01:26:17;;;;;;;6.80;5.03;;;;;;;;;;5071885;28;20194;-72
2022/03/14 01:28:45;;;;;;;7.18;5.03;;;;;;;;;;5063074;28;20195;-72
2022/03/14 01:31:13;;;;;;;11.90;7.00;;;;;;;;;;5063866;28;20244;-72
2022/03/14 01:33:40;;;;;;;8.77;7.88;;;;;;;;;;5065679;28;20318;-72
2022/03/14 01:36:07;;;;;;;5.95;4.28;;;;;;;;;;5062084;28;20209;-72
2022/03/14 01:38:34;;;;;;;5.55;4.63;;;;;;;;;;5063107;28;20210;-72
2022/03/14 01:41:01;;;;;;;8.18;6.97;;;;;;;;;;5065413;28;20837;-73
2022/03/14 01:43:29;;;;;;;10.27;7.32;;;;;;;;;;5065154;28;20187;-72
2022/03/14 01:45:56;;;;;;;6.00;4.75;;;;;;;;;;5062873;28;20564;-72
2022/03/14 01:48:25;;;;;;;5.68;4.63;;;;;;;;;;5067857;28;20801;-70
2022/03/14 01:50:52;;;;;;;6.00;5.38;;;;;;;;;;5066895;28;20217;-72
2022/03/14 01:53:19;;;;;;;7.63;6.82;;;;;;;;;;5067238;28;20194;-71
2022/03/14 01:55:47;;;;;;;7.13;6.43;;;;;;;;;;5068341;28;20252;-74
2022/03/14 01:58:15;;;;;;;5.95;5.28;;;;;;;;;;5066499;28;20211;-72
2022/03/14 02:00:43;;;;;;;8.00;6.85;;;;;;;;;;5067872;28;20609;-72
2022/03/14 02:03:10;;;;;;;6.93;5.60;;;;;;;;;;5066614;28;20194;-73
2022/03/14 02:05:38;;;;;;;6.30;5.10;;;;;;;;;;5063709;28;20205;-74
2022/03/14 02:08:06;;;;;;;9.32;6.00;;;;;;;;;;5062253;28;20325;-74
2022/03/14 02:10:34;;;;;;;6.07;5.47;;;;;;;;;;5064126;28;20247;-74
2022/03/14 02:13:04;;;;;;;9.88;7.45;;;;;;;;;;5065820;28;20289;-73
2022/03/14 02:15:31;;;;;;;6.50;5.53;;;;;;;;;;5070758;28;20671;-73
2022/03/14 02:17:58;;;;;;;9.70;8.70;;;;;;;;;;5072550;28;20190;-74
2022/03/14 02:20:27;;;;;;;11.32;8.57;;;;;;;;;;5072340;28;20202;-72
2022/03/14 02:22:54;;;;;;;9.65;7.30;;;;;;;;;;5066559;28;20267;-73
2022/03/14 02:25:21;;;;;;;8.18;6.63;;;;;;;;;;5070686;28;20221;-73
2022/03/14 02:27:48;;;;;;;15.05;10.70;;;;;;;;;;5069169;28;20194;-73
2022/03/14 02:30:15;;;;;;;11.65;9.05;;;;;;;;;;5067710;28;20197;-73
2022/03/14 02:32:42;;;;;;;8.10;6.25;;;;;;;;;;5069683;28;20191;-72
2022/03/14 02:35:10;;;;;;;10.43;7.53;;;;;;;;;;5070765;28;20194;-73
2022/03/14 02:37:39;;;;;;;8.50;7.70;;;;;;;;;;5066911;28;20202;-73
2022/03/14 02:40:07;;;;;;;6.60;5.90;;;;;;;;;;5069911;28;20272;-73
2022/03/14 02:42:34;;;;;;;9.57;7.72;;;;;;;;;;5071243;28;20576;-73
2022/03/14 02:45:02;;;;;;;11.15;9.25;;;;;;;;;;5061547;28;20194;-72
2022/03/14 02:47:29;;;;;;;6.90;5.75;;;;;;;;;;5068292;28;20251;-72
2022/03/14 02:49:56;;;;;;;8.48;6.40;;;;;;;;;;5070218;28;20202;-73
2022/03/14 02:52:23;;;;;;;10.63;9.00;;;;;;;;;;5063512;28;20680;-72
2022/03/14 02:54:52;;;;;;;11.10;9.15;;;;;;;;;;5068880;28;20202;-72
2022/03/14 02:57:19;;;;;;;7.70;6.97;;;;;;;;;;5071942;28;20256;-72
2022/03/14 02:59:49;;;;;;;11.45;8.80;;;;;;;;;;5064522;28;20250;-70
2022/03/14 03:02:18;;;;;;;9.50;8.00;;;;;;;;;;5074947;28;20609;-73
2022/03/14 03:04:45;;;;;;;12.60;10.23;;;;;;;;;;5068295;28;20268;-73
2022/03/14 03:07:12;;;;;;;10.95;8.85;;;;;;;;;;5067998;28;20652;-72
2022/03/14 03:09:39;;;;;;;11.13;7.90;;;;;;;;;;5068146;28;20194;-73
2022/03/14 03:12:14;;;;;;;9.48;8.50;;;;;;;;;;5065725;28;20206;-73
2022/03/14 03:14:41;;;;;;;11.88;9.02;;;;;;;;;;5060390;28;20211;-72
2022/03/14 03:17:09;;;;;;;9.55;8.30;;;;;;;;;;5063637;28;20225;-72
2022/03/14 03:19:36;;;;;;;10.50;9.02;;;;;;;;;;5074159;28;20242;-72
2022/03/14 03:22:03;;;;;;;12.90;9.02;;;;;;;;;;5065602;28;20195;-72
2022/03/14 03:24:30;;;;;;;8.65;7.75;;;;;;;;;;5075218;28;20217;-72
2022/03/14 03:26:57;;;;;;;12.60;8.15;;;;;;;;;;5071234;28;20187;-73
2022/03/14 03:29:25;;;;;;;10.45;7.32;;;;;;;;;;5070196;28;20209;-72
2022/03/14 03:31:53;;;;;;;9.10;7.72;;;;;;;;;;5066250;28;20202;-73
2022/03/14 03:34:20;;;;;;;9.60;7.90;;;;;;;;;;5071489;28;20592;-72
2022/03/14 03:36:47;;;;;;;10.35;7.15;;;;;;;;;;5081702;28;20268;-72
2022/03/14 03:39:14;;;;;;;11.05;8.32;;;;;;;;;;5066015;28;20214;-73
2022/03/14 03:41:41;;;;;;;9.43;7.30;;;;;;;;;;5068652;28;20511;-72
2022/03/14 03:44:09;;;;;;;14.05;8.55;;;;;;;;;;5066371;28;20191;-73
2022/03/14 03:46:37;;;;;;;8.18;7.15;;;;;;;;;;5063659;28;20209;-72
2022/03/14 03:49:04;;;;;;;8.35;6.93;;;;;;;;;;5068709;28;20194;-73
2022/03/14 03:51:31;;;;;;;12.63;7.28;;;;;;;;;;5069829;28;20202;-71
2022/03/14 03:53:58;;;;;;;7.47;6.45;;;;;;;;;;5066592;28;20194;-72
2022/03/14 03:56:26;;;;;;;8.45;6.85;;;;;;;;;;5070879;28;20195;-71
2022/03/14 03:58:53;;;;;;;8.73;7.28;;;;;;;;;;5064712;28;20585;-71
2022/03/14 04:01:23;;;;;;;10.93;8.65;;;;;;;;;;5067871;28;20198;-72
2022/03/14 04:03:54;;;;;;;8.50;7.10;;;;;;;;;;5069150;28;20194;-73
2022/03/14 04:06:22;;;;;;;8.80;7.05;;;;;;;;;;5066138;28;22681;-71
2022/03/14 04:08:49;;;;;;;8.15;6.72;;;;;;;;;;5067380;28;20225;-71
2022/03/14 04:11:16;;;;;;;9.65;7.60;;;;;;;;;;5069688;28;20205;-70
2022/03/14 04:13:44;;;;;;;11.05;7.35;;;;;;;;;;5064435;28;20353;-71
2022/03/14 04:16:11;;;;;;;8.18;7.35;;;;;;;;;;5058324;28;20198;-73
2022/03/14 04:18:38;;;;;;;8.70;7.72;;;;;;;;;;5064252;28;20198;-71
2022/03/14 04:21:06;;;;;;;7.72;6.55;;;;;;;;;;5062243;28;21481;-72
2022/03/14 04:23:34;;;;;;;9.35;7.53;;;;;;;;;;5062061;28;20225;-72
2022/03/14 04:26:01;;;;;;;8.40;7.50;;;;;;;;;;5061891;28;20194;-73
2022/03/14 04:28:28;;;;;;;10.95;7.32;;;;;;;;;;5062063;28;20573;-72
2022/03/14 04:30:55;;;;;;;8.57;7.45;;;;;;;;;;5064495;28;20536;-73
2022/03/14 04:33:22;;;;;;;12.80;9.95;;;;;;;;;;5062125;28;20213;-74
2022/03/14 04:35:49;;;;;;;7.95;7.15;;;;;;;;;;5061983;28;20194;-72
2022/03/14 04:38:18;;;;;;;8.95;6.10;;;;;;;;;;5061106;28;20198;-72
2022/03/14 04:40:45;;;;;;;8.48;7.45;;;;;;;;;;5060657;28;20217;-74
2022/03/14 04:43:12;;;;;;;8.55;5.75;;;;;;;;;;5064600;28;20865;-71
2022/03/14 04:45:40;;;;;;;7.45;5.63;;;;;;;;;;5062596;28;20197;-73
2022/03/14 04:48:07;;;;;;;8.90;6.65;;;;;;;;;;5061088;28;20277;-73
2022/03/14 04:50:35;;;;;;;8.02;6.88;;;;;;;;;;5062774;28;20664;-71
2022/03/14 04:53:02;;;;;;;6.97;5.75;;;;;;;;;;5062247;28;20194;-70
2022/03/14 04:55:31;;;;;;;7.82;7.03;;;;;;;;;;5062226;28;20197;-73
2022/03/14 04:57:58;;;;;;;10.13;7.20;;;;;;;;;;5062028;28;20198;-72
2022/03/14 05:00:25;;;;;;;8.10;5.70;;;;;;;;;;5061599;28;20221;-71
2022/03/14 05:02:52;;;;;;;9.32;6.85;;;;;;;;;;5061949;28;20481;-74
2022/03/14 05:05:19;;;;;;;10.07;7.35;;;;;;;;;;5062529;28;20202;-73
2022/03/14 05:07:47;;;;;;;8.48;6.25;;;;;;;;;;5061277;28;20209;-72
2022/03/14 05:10:14;;;;;;;8.98;6.82;;;;;;;;;;5061164;28;20205;-73
2022/03/14 05:12:42;;;;;;;6.50;5.90;;;;;;;;;;5062448;28;20190;-71
2022/03/14 05:15:10;;;;;;;7.15;4.80;;;;;;;;;;5063539;28;20585;-71
2022/03/14 05:17:37;;;;;;;7.47;5.70;;;;;;;;;;5060538;28;20198;-71
2022/03/14 05:20:04;;;;;;;8.95;7.20;;;;;;;;;;5062969;28;20684;-71
2022/03/14 05:22:32;;;;;;;7.93;6.45;;;;;;;;;;5063594;28;20194;-71
2022/03/14 05:24:59;;;;;;;8.15;6.40;;;;;;;;;;5061475;28;20214;-71
2022/03/14 05:27:26;;;;;;;7.22;6.53;;;;;;;;;;5061220;28;20190;-71
2022/03/14 05:29:55;;;;;;;8.15;6.13;;;;;;;;;;5064253;28;20243;-72
2022/03/14 05:32:22;;;;;;;6.68;5.97;;;;;;;;;;5062419;28;20198;-72
2022/03/14 05:34:49;;;;;;;5.72;4.80;;;;;;;;;;5062630;28;20190;-70
2022/03/14 05:37:17;;;;;;;9.32;5.47;;;;;;;;;;5065694;28;20675;-71
2022/03/14 05:39:45;;;;;;;7.32;6.68;;;;;;;;;;5067794;28;20206;-71
2022/03/14 05:42:12;;;;;;;6.55;5.63;;;;;;;;;;5066851;28;20225;-71
2022/03/14 05:44:39;;;;;;;7.70;5.65;;;;;;;;;;5066088;28;20190;-72
2022/03/14 05:47:08;;;;;;;7.40;5.85;;;;;;;;;;5071369;28;20209;-72
2022/03/14 05:49:35;;;;;;;7.45;6.00;;;;;;;;;;5071811;28;20220;-71
2022/03/14 05:52:02;;;;;;;6.32;5.15;;;;;;;;;;5068422;28;20194;-71
2022/03/14 05:54:29;;;;;;;6.57;5.20;;;;;;;;;;5071597;28;20247;-71
2022/03/14 05:56:56;;;;;;;6.60;5.30;;;;;;;;;;5070582;28;20573;-71
2022/03/14 05:59:23;;;;;;;7.20;5.40;;;;;;;;;;5069790;28;20213;-71
2022/03/14 06:01:50;;;;;;;5.70;4.60;;;;;;;;;;5069473;28;20229;-71
2022/03/14 06:04:19;;;;;;;5.75;4.18;;;;;;;;;;5073789;28;20210;-72
2022/03/14 06:06:47;;;;;;;5.65;4.93;;;;;;;;;;5070520;28;20198;-72
2022/03/14 06:09:14;;;;;;;9.88;5.65;;;;;;;;;;5066179;28;20198;-72
2022/03/14 06:11:42;;;;;;;6.78;5.45;;;;;;;;;;5070593;28;20213;-72
2022/03/14 06:14:10;;;;;;;5.28;4.53;;;;;;;;;;5066991;28;20205;-72
2022/03/14 06:16:38;;;;;;;5.45;4.35;;;;;;;;;;5076169;28;20198;-72
2022/03/14 06:19:05;;;;;;;5.32;4.82;;;;;;;;;;5069913;28;20511;-71
2022/03/14 06:21:34;;;;;;;5.80;4.60;;;;;;;;;;5069908;28;20640;-72
2022/03/14 06:24:01;;;;;;;6.93;4.70;;;;;;;;;;5063597;28;20229;-72
2022/03/14 06:26:28;;;;;;;5.38;4.65;;;;;;;;;;5070954;28;20194;-72
2022/03/14 06:28:55;;;;;;;5.70;5.10;;;;;;;;;;5068359;28;20193;-72
2022/03/14 06:31:22;;;;;;;6.03;4.97;;;;;;;;;;5071878;28;20687;-73
2022/03/14 06:33:50;;;;;;;6.82;5.30;;;;;;;;;;5064478;28;20199;-72
2022/03/14 06:36:17;;;;;;;5.72;4.13;;;;;;;;;;5070819;28;20190;-72
2022/03/14 06:38:46;;;;;;;6.22;4.13;;;;;;;;;;5068032;28;20195;-72
2022/03/14 06:41:13;;;;;;;4.43;3.95;;;;;;;;;;5071114;28;20256;-72
2022/03/14 06:43:40;;;;;;;8.02;4.32;;;;;;;;;;5066665;28;20198;-74
2022/03/14 06:46:08;;;;;;;5.95;4.70;;;;;;;;;;5069136;28;20267;-72
2022/03/14 06:48:39;;;;;;;4.75;3.75;;;;;;;;;;5069932;28;20277;-71
2022/03/14 06:51:06;;;;;;;4.07;3.67;;;;;;;;;;5069628;28;20202;-71
2022/03/14 06:53:33;;;;;;;5.32;4.60;;;;;;;;;;5066288;28;20668;-71
2022/03/14 06:56:02;;;;;;;3.83;3.47;;;;;;;;;;5070291;28;20667;-72
2022/03/14 06:58:30;;;;;;;4.30;3.30;;;;;;;;;;5075159;28;20440;-71
2022/03/14 07:00:58;;;;;;;4.78;4.07;;;;;;;;;;5066149;28;20283;-72
2022/03/14 07:03:27;;;;;;;5.95;3.65;;;;;;;;;;5070438;28;20198;-71
2022/03/14 07:05:54;;;;;;;3.53;2.92;;;;;;;;;;5069056;28;20577;-73
2022/03/14 07:08:21;;;;;;;5.38;3.90;;;;;;;;;;5066406;28;20225;-72
2022/03/14 07:10:48;;;;;;;3.65;3.30;;;;;;;;;;5067464;28;20672;-73
2022/03/14 07:13:16;;;;;;;5.15;2.90;;;;;;;;;;5070583;28;20198;-73
2022/03/14 07:15:43;;;;;;;3.95;3.10;;;;;;;;;;5064795;28;20661;-72
2022/03/14 07:18:11;;;;;;;2.45;2.25;;;;;;;;;;5077198;28;20755;-72
2022/03/14 07:20:38;;;;;;;3.35;3.05;;;;;;;;;;5066137;28;20210;-71
2022/03/14 07:23:07;;;;;;;3.53;2.92;;;;;;;;;;5059871;28;20671;-70
2022/03/14 07:25:35;;;;;;;4.10;2.85;;;;;;;;;;5072437;28;20226;-71
2022/03/14 07:28:04;;;;;;;3.30;2.65;;;;;;;;;;5068221;28;20269;-73
2022/03/14 07:30:32;;;;;;;3.05;2.75;;;;;;;;;;5067489;28;21425;-70
2022/03/14 07:32:59;;;;;;;2.80;2.50;;;;;;;;;;5069520;28;20190;-71
2022/03/14 07:35:27;;;;;;;4.22;3.05;;;;;;;;;;5076565;28;20199;-73
2022/03/14 07:37:55;;;;;;;4.28;2.70;;;;;;;;;;5067036;28;20202;-74
2022/03/14 07:40:22;;;;;;;2.83;2.58;;;;;;;;;;5071547;28;20696;-73
2022/03/14 07:42:52;;;;;;;3.47;2.83;;;;;;;;;;5070004;28;20676;-73
2022/03/14 07:45:20;;;;;;;2.70;2.35;;;;;;;;;;5061528;28;20229;-72
2022/03/14 07:47:49;;;;;;;3.20;2.90;;;;;;;;;;5073479;28;20194;-72
2022/03/14 07:50:17;;;;;;;3.30;3.00;;;;;;;;;;5065398;28;20202;-71
2022/03/14 07:52:44;;;;;;;3.55;2.55;;;;;;;;;;5062621;28;20206;-71
2022/03/14 07:55:12;;;;;;;2.60;2.30;;;;;;;;;;5077646;28;20683;-71
2022/03/14 07:57:39;;;;;;;2.38;2.17;;;;;;;;;;5064031;28;20205;-74
2022/03/14 08:00:08;;;;;;;3.60;3.08;;;;;;;;;;5060997;28;20210;-72
2022/03/14 08:02:35;;;;;;;2.45;2.25;;;;;;;;;;5065603;28;20194;-71
2022/03/14 08:05:03;;;;;;;3.47;2.42;;;;;;;;;;5066960;28;20668;-71
2022/03/14 08:07:30;;;;;;;3.08;2.78;;;;;;;;;;5066551;28;20510;-70
2022/03/14 08:09:58;;;;;;;3.22;2.92;;;;;;;;;;5067888;28;20635;-70
2022/03/14 08:12:25;;;;;;;3.30;2.90;;;;;;;;;;5068261;28;20202;-71
2022/03/14 08:14:52;;;;;;;3.40;3.10;;;;;;;;;;5063614;28;20205;-72
2022/03/14 08:17:19;;;;;;;2.75;2.55;;;;;;;;;;5067273;28;20198;-73
2022/03/14 08:19:46;;;;;;;3.28;2.85;;;;;;;;;;5065539;28;20198;-72
2022/03/14 08:22:14;;;;;;;3.58;2.80;;;;;;;;;;5067609;28;20204;-76
2022/03/14 08:24:41;;;;;;;3.03;2.80;;;;;;;;;;5068199;28;20214;-76
2022/03/14 08:27:08;;;;;;;4.57;3.58;;;;;;;;;;5069482;28;20186;-79
2022/03/14 08:29:35;;;;;;;4.05;3.67;;;;;;;;;;5063570;28;20210;-79
2022/03/14 08:32:03;;;;;;;3.67;3.22;;;;;;;;;;5068586;28;20198;-81
2022/03/14 08:34:30;;;;;;;3.78;3.22;;;;;;;;;;5071025;28;20201;-69
2022/03/14 08:36:58;;;;;;;4.25;3.85;;;;;;;;;;5066328;28;20191;-71
2022/03/14 08:39:26;;;;;;;4.50;4.10;;;;;;;;;;5054777;28;20193;-70
2022/03/14 08:41:53;;;;;;;6.13;4.57;;;;;;;;;;5068887;28;20692;-71
2022/03/14 08:44:20;;;;;;;5.15;4.45;;;;;;;;;;5066039;28;20221;-73
2022/03/14 08:46:47;;;;;;;5.70;4.85;;;;;;;;;;5069554;28;20588;-72
2022/03/14 08:49:14;;;;;;;6.55;4.82;;;;;;;;;;5068302;28;20564;-71
2022/03/14 08:51:42;;;;;;;3.70;3.40;;;;;;;;;;5066332;28;20247;-72
2022/03/14 08:54:09;;;;;;;4.25;3.83;;;;;;;;;;5066980;28;20207;-74
2022/03/14 08:56:41;;;;;;;6.05;4.97;;;;;;;;;;5065878;28;20194;-71
2022/03/14 08:59:11;;;;;;;4.00;3.70;;;;;;;;;;5064873;28;20198;-73
2022/03/14 09:01:38;;;;;;;4.85;4.45;;;;;;;;;;5061262;28;20218;-72
2022/03/14 09:04:06;;;;;;;5.68;4.90;;;;;;;;;;5070136;28;20202;-72
2022/03/14 09:06:35;;;;;;;4.45;4.05;;;;;;;;;;5068380;28;20240;-70
2022/03/14 09:09:02;;;;;;;5.22;4.22;;;;;;;;;;5068629;28;20564;-71
2022/03/14 09:11:29;;;;;;;8.40;4.57;;;;;;;;;;5071408;28;20194;-70
2022/03/14 09:13:58;;;;;;;6.10;4.30;;;;;;;;;;5066810;28;20248;-71
2022/03/14 09:16:25;;;;;;;4.05;3.72;;;;;;;;;;5068224;28;20198;-71
2022/03/14 09:18:53;;;;;;;5.60;4.90;;;;;;;;;;5073647;28;20194;-71
2022/03/14 09:21:20;;;;;;;6.47;5.15;;;;;;;;;;5068450;28;20696;-71
2022/03/14 09:23:47;;;;;;;3.65;3.25;;;;;;;;;;5068803;28;20790;-71
2022/03/14 09:26:14;;;;;;;3.72;3.42;;;;;;;;;;5064177;28;20206;-71
2022/03/14 09:28:44;;;;;;;5.88;4.32;;;;;;;;;;5072197;28;20194;-71
2022/03/14 09:31:13;;;;;;;4.75;4.15;;;;;;;;;;5072109;28;20201;-72
2022/03/14 09:33:41;;;;;;;4.57;4.18;;;;;;;;;;5072878;28;20206;-72
2022/03/14 09:36:08;;;;;;;4.80;3.53;;;;;;;;;;5071573;28;20194;-72
2022/03/14 09:38:35;;;;;;;5.93;4.90;;;;;;;;;;5074720;28;20280;-72
2022/03/14 09:41:04;;;;;;;3.85;3.33;;;;;;;;;;5072509;28;20225;-72
2022/03/14 09:43:31;;;;;;;3.70;3.40;;;;;;;;;;5068969;28;20221;-72
2022/03/14 09:46:00;;;;;;;4.05;3.28;;;;;;;;;;5071622;28;20201;-72
2022/03/14 09:48:34;;;;;;;4.45;3.88;;;;;;;;;;5073267;28;20665;-72
2022/03/14 09:51:01;;;;;;;5.72;3.85;;;;;;;;;;5072706;28;20197;-72
2022/03/14 09:53:28;;;;;;;4.30;3.85;;;;;;;;;;5071247;28;20281;-71
2022/03/14 09:55:57;;;;;;;13.45;4.00;;;;;;;;;;5073118;28;20201;-71
2022/03/14 09:58:24;;;;;;;5.10;4.60;;;;;;;;;;5070179;28;20195;-71
2022/03/14 10:00:53;;;;;;;4.65;4.10;;;;;;;;;;5063795;28;20210;-72
2022/03/14 10:03:21;;;;;;;4.82;4.43;;;;;;;;;;5073199;28;20293;-72
2022/03/14 10:05:49;;;;;;;6.65;5.43;;;;;;;;;;5074128;28;20625;-71
2022/03/14 10:08:17;;;;;;;6.30;5.72;;;;;;;;;;5068699;28;20198;-71
2022/03/14 10:10:44;;;;;;;7.82;4.80;;;;;;;;;;5077034;28;20202;-72
2022/03/14 10:13:11;;;;;;;5.50;5.00;;;;;;;;;;5065988;28;20190;-71
2022/03/14 10:15:40;;;;;;;5.90;5.32;;;;;;;;;;5071141;28;20668;-71
2022/03/14 10:18:11;;;;;;;7.82;5.70;;;;;;;;;;5073140;28;20560;-71
2022/03/14 10:20:40;;;;;;;6.60;5.85;;;;;;;;;;5071980;28;20235;-71
2022/03/14 10:23:09;;;;;;;7.93;5.57;;;;;;;;;;5069319;28;20715;-72
2022/03/14 10:25:42;;;;;;;5.80;5.22;;;;;;;;;;5058930;28;20198;-71
2022/03/14 10:28:10;;;;;;;8.40;7.10;;;;;;;;;;5072170;28;20680;-71
2022/03/14 10:30:37;;;;;;;8.27;7.47;;;;;;;;;;5057584;28;20669;-72
2022/03/14 10:33:14;;;;;;;7.60;6.90;;;;;;;;;;5075524;28;20190;-71
2022/03/14 10:35:42;;;;;;;8.75;7.20;;;;;;;;;;5076877;28;20189;-71
2022/03/14 10:38:11;;;;;;;7.78;6.53;;;;;;;;;;5068535;28;20198;-71
2022/03/14 10:40:39;;;;;;;9.98;5.38;;;;;;;;;;5072706;28;20242;-71
2022/03/14 10:43:09;;;;;;;6.32;5.70;;;;;;;;;;5073820;28;20210;-71
2022/03/14 10:45:36;;;;;;;6.78;5.90;;;;;;;;;;5070795;28;20195;-71
2022/03/14 10:48:03;;;;;;;6.53;5.82;;;;;;;;;;5070728;28;20381;-79
2022/03/14 10:50:34;;;;;;;6.80;6.10;;;;;;;;;;5076077;28;20195;-70
2022/03/14 10:53:02;;;;;;;6.47;5.32;;;;;;;;;;5062088;28;20221;-71
2022/03/14 10:55:36;;;;;;;6.18;5.57;;;;;;;;;;5072997;28;20209;-73
2022/03/14 10:58:08;;;;;;;5.30;4.55;;;;;;;;;;5067924;28;20202;-72
2022/03/14 11:00:45;;;;;;;7.72;6.90;;;;;;;;;;5062818;28;20226;-72
2022/03/14 11:03:12;;;;;;;6.95;6.05;;;;;;;;;;5066043;28;20676;-72
2022/03/14 11:05:44;;;;;;;9.25;5.90;;;;;;;;;;5069343;28;20194;-72
2022/03/14 11:08:26;;;;;;;5.68;5.18;;;;;;;;;;5065910;28;20254;-72
2022/03/14 11:10:55;;;;;;;8.52;7.13;;;;;;;;;;5065393;28;20198;-73
2022/03/14 11:13:22;;;;;;;8.95;8.05;;;;;;;;;;5068613;28;20190;-72
2022/03/14 11:15:49;;;;;;;9.48;7.20;;;;;;;;;;5065195;28;20198;-71
2022/03/14 11:18:16;;;;;;;8.45;7.65;;;;;;;;;;5066358;28;20497;-74
2022/03/14 11:20:44;;;;;;;9.15;7.10;;;;;;;;;;5061708;28;20231;-72
2022/03/14 11:23:12;;;;;;;10.07;7.80;;;;;;;;;;5062120;28;20214;-73
2022/03/14 11:25:39;;;;;;;7.15;6.32;;;;;;;;;;5064485;28;20357;-72
2022/03/14 11:28:08;;;;;;;8.15;6.65;;;;;;;;;;5066424;28;20198;-72
2022/03/14 11:30:38;;;;;;;9.45;7.35;;;;;;;;;;5064508;28;20305;-72
2022/03/14 11:33:05;;;;;;;7.82;7.03;;;;;;;;;;5065798;28;20304;-72
2022/03/14 11:35:32;;;;;;;8.43;7.68;;;;;;;;;;5064771;28;20195;-74
2022/03/14 11:37:59;;;;;;;9.00;7.85;;;;;;;;;;5061519;28;20655;-72
2022/03/14 11:40:27;;;;;;;8.70;7.93;;;;;;;;;;5066071;28;20197;-72
2022/03/14 11:42:54;;;;;;;8.93;7.50;;;;;;;;;;5066567;28;20819;-72
2022/03/14 11:45:22;;;;;;;9.10;6.95;;;;;;;;;;5062892;28;20202;-71
2022/03/14 11:47:53;;;;;;;9.93;7.30;;;;;;;;;;5062342;28;20273;-71
2022/03/14 11:50:22;;;;;;;8.63;6.80;;;;;;;;;;5071450;28;20193;-70
2022/03/14 11:52:50;;;;;;;8.40;7.60;;;;;;;;;;5065848;28;20202;-71
2022/03/14 11:55:18;;;;;;;9.73;6.60;;;;;;;;;;5067857;28;20210;-70
2022/03/14 11:57:47;;;;;;;8.10;7.30;;;;;;;;;;5063356;28;20186;-70
2022/03/14 12:00:35;;;;;;;7.68;6.68;;;;;;;;;;5062973;28;20210;-74
2022/03/14 12:03:03;;;;;;;8.25;6.93;;;;;;;;;;5067261;28;20580;-72
2022/03/14 12:05:49;;;;;;;7.45;6.15;;;;;;;;;;5068416;28;20663;-72
2022/03/14 12:08:35;;;;;;;11.23;6.65;;;;;;;;;;5064488;28;20205;-73
2022/03/14 12:11:17;;;;;;;7.05;6.35;;;;;;;;;;5068072;28;20190;-72
2022/03/14 12:13:44;;;;;;;7.53;6.70;;;;;;;;;;5061025;28;20195;-72
2022/03/14 12:16:26;;;;;;;8.32;6.18;;;;;;;;;;5064636;28;20202;-72
2022/03/14 12:18:58;;;;;;;9.40;6.45;;;;;;;;;;5066213;28;20607;-72
2022/03/14 12:21:44;;;;;;;9.68;5.70;;;;;;;;;;5069563;28;20610;-71
2022/03/14 12:24:18;;;;;;;6.40;5.78;;;;;;;;;;5059354;28;20226;-71
2022/03/14 12:26:46;;;;;;;8.15;7.40;;;;;;;;;;5070672;28;20644;-72
2022/03/14 12:29:34;;;;;;;6.25;5.30;;;;;;;;;;5068068;28;20673;-73
2022/03/14 12:32:21;;;;;;;6.18;5.60;;;;;;;;;;5065813;28;20200;-73
2022/03/14 12:34:57;;;;;;;8.98;5.10;;;;;;;;;;5069241;28;20202;-71
2022/03/14 12:37:25;;;;;;;6.15;5.32;;;;;;;;;;5069638;28;20194;-71
2022/03/14 12:39:53;;;;;;;7.72;6.45;;;;;;;;;;5068511;28;20219;-71
2022/03/14 12:42:25;;;;;;;7.70;6.97;;;;;;;;;;5067261;28;20257;-71
2022/03/14 12:45:11;;;;;;;7.70;5.47;;;;;;;;;;5064267;28;20194;-71
2022/03/14 12:47:41;;;;;;;6.78;6.13;;;;;;;;;;5066191;28;20284;-71
2022/03/14 12:50:10;;;;;;;6.20;5.60;;;;;;;;;;5071265;28;20216;-71
2022/03/14 12:52:52;;;;;;;7.07;6.28;;;;;;;;;;5070495;28;20260;-72
2022/03/14 12:55:20;;;;;;;9.13;7.35;;;;;;;;;;5069980;28;20189;-71
2022/03/14 12:57:52;;;;;;;7.53;5.85;;;;;;;;;;5067475;28;20186;-72
2022/03/14 13:00:19;;;;;;;7.63;6.93;;;;;;;;;;5066444;28;20202;-71
2022/03/14 13:02:46;;;;;;;7.22;6.63;;;;;;;;;;5071406;28;20213;-72
2022/03/14 13:05:19;;;;;;;8.68;6.65;;;;;;;;;;5069994;28;20221;-71
2022/03/14 13:07:46;;;;;;;9.00;5.97;;;;;;;;;;5069090;28;20220;-72
2022/03/14 13:10:13;;;;;;;7.22;6.50;;;;;;;;;;5062976;28;20197;-71
2022/03/14 13:12:52;;;;;;;12.63;7.60;;;;;;;;;;5070471;28;20194;-72
2022/03/14 13:15:19;;;;;;;11.10;6.93;;;;;;;;;;5067632;28;20194;-71
2022/03/14 13:17:49;;;;;;;8.55;6.90;;;;;;;;;;5068813;28;20194;-71
2022/03/14 13:20:26;;;;;;;7.95;6.72;;;;;;;;;;5068574;28;20194;-71
2022/03/14 13:22:53;;;;;;;8.13;6.22;;;;;;;;;;5065584;28;20214;-72
2022/03/14 13:25:30;;;;;;;8.68;7.32;;;;;;;;;;5065990;28;20226;-71
2022/03/14 13:27:57;;;;;;;9.25;6.25;;;;;;;;;;5068248;28;20561;-71
2022/03/14 13:30:24;;;;;;;6.25;5.75;;;;;;;;;;5066394;28;20250;-71
2022/03/14 13:32:51;;;;;;;7.05;5.78;;;;;;;;;;5062365;28;20212;-71
2022/03/14 13:35:18;;;;;;;9.10;7.03;;;;;;;;;;5066430;28;20190;-72
2022/03/14 13:37:49;;;;;;;6.75;6.05;;;;;;;;;;5066440;28;20209;-72
2022/03/14 13:40:18;;;;;;;9.50;6.40;;;;;;;;;;5069771;28;20209;-72
2022/03/14 13:42:46;;;;;;;6.60;6.00;;;;;;;;;;5068889;28;20587;-73
2022/03/14 13:45:13;;;;;;;6.88;6.28;;;;;;;;;;5066206;28;20195;-72
2022/03/14 13:47:40;;;;;;;7.35;6.22;;;;;;;;;;5066188;28;20187;-72
2022/03/14 13:50:08;;;;;;;6.50;5.90;;;;;;;;;;5067255;28;20205;-71
2022/03/14 13:52:35;;;;;;;7.30;6.18;;;;;;;;;;5063668;28;20198;-71
2022/03/14 13:55:12;;;;;;;5.80;5.30;;;;;;;;;;5069434;28;20195;-72
2022/03/14 13:57:40;;;;;;;6.78;6.03;;;;;;;;;;5067103;28;20198;-72
2022/03/14 14:00:13;;;;;;;9.50;6.15;;;;;;;;;;5066283;28;20195;-72
2022/03/14 14:02:40;;;;;;;6.15;5.55;;;;;;;;;;5069841;28;20217;-71
2022/03/14 14:05:08;;;;;;;5.60;5.10;;;;;;;;;;5070667;28;20187;-71
2022/03/14 14:07:35;;;;;;;6.65;5.53;;;;;;;;;;5071855;28;20564;-71
2022/03/14 14:10:10;;;;;;;6.13;5.35;;;;;;;;;;5073169;28;20385;-71
2022/03/14 14:12:37;;;;;;;7.00;5.10;;;;;;;;;;5074086;28;20213;-71
2022/03/14 14:15:05;;;;;;;6.20;5.43;;;;;;;;;;5068673;28;20209;-71
2022/03/14 14:17:35;;;;;;;8.38;5.07;;;;;;;;;;5073284;28;20463;-71
2022/03/14 14:20:04;;;;;;;5.30;4.88;;;;;;;;;;5072920;28;20190;-72
2022/03/14 14:22:32;;;;;;;5.45;4.95;;;;;;;;;;5072024;28;20222;-73
2022/03/14 14:24:59;;;;;;;5.90;4.40;;;;;;;;;;5070796;28;20592;-72
2022/03/14 14:27:28;;;;;;;5.00;4.40;;;;;;;;;;5070755;28;20202;-71
2022/03/14 14:29:56;;;;;;;8.23;4.70;;;;;;;;;;5069414;28;20392;-71
2022/03/14 14:32:23;;;;;;;5.63;4.72;;;;;;;;;;5067536;28;20198;-73
2022/03/14 14:34:51;;;;;;;5.50;5.00;;;;;;;;;;5073970;28;20194;-71
2022/03/14 14:37:18;;;;;;;5.22;4.72;;;;;;;;;;5069949;28;20252;-72
2022/03/14 14:39:45;;;;;;;5.13;4.63;;;;;;;;;;5071371;28;20545;-71
2022/03/14 14:42:14;;;;;;;5.20;4.13;;;;;;;;;;5063165;28;20221;-72
2022/03/14 14:44:42;;;;;;;7.60;4.95;;;;;;;;;;5069557;28;20194;-71
2022/03/14 14:47:11;;;;;;;4.97;3.92;;;;;;;;;;5072184;28;20579;-71